Portada
METAR-TAF:

METAR-TAF

Aeroports :

Weipa, Austràlia

latitud: 12-40-43S, longitud: 141-55-31E, altitud: 19 m

Observació

L'informe es va fer fa 24 minuts, a les 16:00 UTC
Vent 5 kt del Est
Temperatura 24°C
Humitat 83%
Pressió 1010 hPa
Visibilitat 10 km o més
Cel cobert a una alçada de 8100 ft

METAR: YBWP 201600Z AUTO 10005KT 9999 // OVC081 24/21 Q1010

Hora: 02:24 (16:24 UTC)


TAF: manca

Observacions i pronòstics meteorològics de més de 4000 aeroports (METAR i TAF).

Les estacions disponibles són els punts grocs i vermells al mapa.

Posi el ratolí al punt desitjat per veure el nom de l'estació.

Feu clic per veure les observacions i els pronòstics meteorològics.

Per canviar el mapa: feu clic els botons verds amb una creu de color negre per apropar; al botó verd amb un guió per allunyar la imatge; o en les fletxes verdes per a mapes adjacents.


METAR-TAF: